Lamona, Washington
Current Conditions -  °F | °C
As of 1:52 PM on Thursday 23 Oct 2014 (Local Time) from KMWH Reporting Station
Scattered Clouds Scattered Clouds  
Wind Chill: 59°   Ceiling: Unl
Heat Index: 59°   Visibility: 10mi
Dew Point: 49°   Wind: 9mph
Humidity: 69%   Direction: 240°WSW
Pressure: 29.79"   Gusts: NA
Location:  47.36°N, 118.48°W
Report Text: KMWH 232052Z 24008KT 10SM FEW032 SCT120 15/09 A2979 RMK AO2 SLP087 T01500094 53006
Loading
Personal Weather Stations






























Interactive Weather Map
Tropical Storm Tracking
New forecast layout! Learn more

10-Day Weather Forecast

Advertisements
Track Severe Weather on mobile